sensor_id;sensor_type;location;lat;lon;timestamp;P1;durP1;ratioP1;P2;durP2;ratioP2
43345;SDS011;28937;51.160;4.146;2022-10-12T00:00:33;32.42;;;19.10;;
43345;SDS011;28937;51.160;4.146;2022-10-12T00:02:59;30.75;;;18.10;;
43345;SDS011;28937;51.160;4.146;2022-10-12T00:05:25;24.42;;;14.70;;
43345;SDS011;28937;51.160;4.146;2022-10-12T00:07:50;22.08;;;12.75;;
43345;SDS011;28937;51.160;4.146;2022-10-12T00:10:16;17.00;;;11.10;;
43345;SDS011;28937;51.160;4.146;2022-10-12T00:12:42;24.13;;;12.15;;
43345;SDS011;28937;51.160;4.146;2022-10-12T00:15:09;22.65;;;11.70;;
43345;SDS011;28937;51.160;4.146;2022-10-12T00:17:35;20.08;;;11.48;;
43345;SDS011;28937;51.160;4.146;2022-10-12T00:20:02;18.00;;;10.93;;
43345;SDS011;28937;51.160;4.146;2022-10-12T00:22:28;20.58;;;10.77;;
43345;SDS011;28937;51.160;4.146;2022-10-12T00:24:54;18.73;;;9.50;;
43345;SDS011;28937;51.160;4.146;2022-10-12T00:27:19;18.90;;;8.75;;
43345;SDS011;28937;51.160;4.146;2022-10-12T00:29:45;16.08;;;8.23;;
43345;SDS011;28937;51.160;4.146;2022-10-12T00:32:11;13.68;;;8.40;;
43345;SDS011;28937;51.160;4.146;2022-10-12T00:34:36;18.77;;;8.63;;
43345;SDS011;28937;51.160;4.146;2022-10-12T00:37:02;17.70;;;9.45;;
43345;SDS011;28937;51.160;4.146;2022-10-12T00:39:27;16.58;;;9.75;;
43345;SDS011;28937;51.160;4.146;2022-10-12T00:41:53;18.08;;;10.20;;
43345;SDS011;28937;51.160;4.146;2022-10-12T00:44:35;29.50;;;14.13;;
43345;SDS011;28937;51.160;4.146;2022-10-12T00:47:17;20.58;;;12.07;;
43345;SDS011;28937;51.160;4.146;2022-10-12T00:52:48;21.55;;;11.75;;
43345;SDS011;28937;51.160;4.146;2022-10-12T00:55:21;25.70;;;12.35;;
43345;SDS011;28937;51.160;4.146;2022-10-12T00:57:49;21.90;;;11.10;;
43345;SDS011;28937;51.160;4.146;2022-10-12T01:00:16;17.65;;;8.63;;
43345;SDS011;28937;51.160;4.146;2022-10-12T01:02:43;16.52;;;8.18;;
43345;SDS011;28937;51.160;4.146;2022-10-12T01:05:12;16.65;;;7.75;;
43345;SDS011;28937;51.160;4.146;2022-10-12T01:07:39;18.02;;;7.97;;
43345;SDS011;28937;51.160;4.146;2022-10-12T01:10:04;18.05;;;8.70;;
43345;SDS011;28937;51.160;4.146;2022-10-12T01:12:31;15.32;;;7.20;;
43345;SDS011;28937;51.160;4.146;2022-10-12T01:14:57;18.25;;;8.82;;
43345;SDS011;28937;51.160;4.146;2022-10-12T01:17:27;16.55;;;9.00;;
43345;SDS011;28937;51.160;4.146;2022-10-12T01:34:35;15.07;;;8.40;;
43345;SDS011;28937;51.160;4.146;2022-10-12T01:40:04;17.65;;;9.25;;
43345;SDS011;28937;51.160;4.146;2022-10-12T01:42:37;16.08;;;9.13;;
43345;SDS011;28937;51.160;4.146;2022-10-12T01:45:07;15.57;;;7.93;;
43345;SDS011;28937;51.160;4.146;2022-10-12T01:47:35;17.98;;;8.25;;
43345;SDS011;28937;51.160;4.146;2022-10-12T01:50:03;14.23;;;7.78;;
43345;SDS011;28937;51.160;4.146;2022-10-12T01:52:41;17.63;;;8.00;;
43345;SDS011;28937;51.160;4.146;2022-10-12T01:55:34;18.02;;;7.60;;
43345;SDS011;28937;51.160;4.146;2022-10-12T02:03:45;14.25;;;7.07;;
43345;SDS011;28937;51.160;4.146;2022-10-12T02:06:27;13.73;;;7.93;;
43345;SDS011;28937;51.160;4.146;2022-10-12T02:09:00;15.38;;;7.93;;
43345;SDS011;28937;51.160;4.146;2022-10-12T02:11:31;14.32;;;7.30;;
43345;SDS011;28937;51.160;4.146;2022-10-12T02:14:05;12.40;;;6.88;;
43345;SDS011;28937;51.160;4.146;2022-10-12T02:16:40;14.00;;;7.18;;
43345;SDS011;28937;51.160;4.146;2022-10-12T02:19:10;11.50;;;6.00;;
43345;SDS011;28937;51.160;4.146;2022-10-12T02:21:40;13.55;;;6.85;;
43345;SDS011;28937;51.160;4.146;2022-10-12T02:24:06;11.30;;;5.95;;
43345;SDS011;28937;51.160;4.146;2022-10-12T02:26:35;11.18;;;6.15;;
43345;SDS011;28937;51.160;4.146;2022-10-12T02:29:05;15.73;;;7.03;;
43345;SDS011;28937;51.160;4.146;2022-10-12T02:31:36;13.23;;;6.55;;
43345;SDS011;28937;51.160;4.146;2022-10-12T02:34:18;10.02;;;6.03;;
43345;SDS011;28937;51.160;4.146;2022-10-12T02:36:50;14.93;;;6.65;;
43345;SDS011;28937;51.160;4.146;2022-10-12T02:42:12;13.23;;;6.87;;
43345;SDS011;28937;51.160;4.146;2022-10-12T02:44:43;15.32;;;7.15;;
43345;SDS011;28937;51.160;4.146;2022-10-12T02:47:10;12.45;;;6.15;;
43345;SDS011;28937;51.160;4.146;2022-10-12T02:49:38;13.55;;;6.63;;
43345;SDS011;28937;51.160;4.146;2022-10-12T02:52:05;13.30;;;6.03;;
43345;SDS011;28937;51.160;4.146;2022-10-12T02:54:32;12.13;;;6.35;;
43345;SDS011;28937;51.160;4.146;2022-10-12T02:56:58;14.68;;;6.55;;
43345;SDS011;28937;51.160;4.146;2022-10-12T02:59:23;13.68;;;6.10;;
43345;SDS011;28937;51.160;4.146;2022-10-12T03:01:49;14.93;;;6.95;;
43345;SDS011;28937;51.160;4.146;2022-10-12T03:04:15;13.38;;;7.35;;
43345;SDS011;28937;51.160;4.146;2022-10-12T03:06:41;12.05;;;7.25;;
43345;SDS011;28937;51.160;4.146;2022-10-12T03:09:06;16.58;;;7.35;;
43345;SDS011;28937;51.160;4.146;2022-10-12T03:11:33;14.65;;;7.28;;
43345;SDS011;28937;51.160;4.146;2022-10-12T03:14:01;13.48;;;7.55;;
43345;SDS011;28937;51.160;4.146;2022-10-12T03:16:27;17.42;;;7.38;;
43345;SDS011;28937;51.160;4.146;2022-10-12T03:18:53;14.85;;;7.28;;
43345;SDS011;28937;51.160;4.146;2022-10-12T03:21:19;13.02;;;7.88;;
43345;SDS011;28937;51.160;4.146;2022-10-12T03:23:45;13.57;;;6.90;;
43345;SDS011;28937;51.160;4.146;2022-10-12T03:26:10;14.18;;;7.40;;
43345;SDS011;28937;51.160;4.146;2022-10-12T03:28:36;14.85;;;6.85;;
43345;SDS011;28937;51.160;4.146;2022-10-12T03:31:01;16.25;;;8.68;;
43345;SDS011;28937;51.160;4.146;2022-10-12T03:33:27;9.90;;;6.95;;
43345;SDS011;28937;51.160;4.146;2022-10-12T03:35:53;14.63;;;7.20;;
43345;SDS011;28937;51.160;4.146;2022-10-12T03:38:19;14.00;;;8.23;;
43345;SDS011;28937;51.160;4.146;2022-10-12T03:40:44;14.98;;;7.88;;
43345;SDS011;28937;51.160;4.146;2022-10-12T03:43:10;15.27;;;7.97;;
43345;SDS011;28937;51.160;4.146;2022-10-12T03:45:36;15.88;;;8.02;;
43345;SDS011;28937;51.160;4.146;2022-10-12T03:48:02;14.23;;;8.05;;
43345;SDS011;28937;51.160;4.146;2022-10-12T03:50:29;17.80;;;8.60;;
43345;SDS011;28937;51.160;4.146;2022-10-12T03:52:57;13.38;;;8.10;;
43345;SDS011;28937;51.160;4.146;2022-10-12T03:55:23;17.55;;;8.18;;
43345;SDS011;28937;51.160;4.146;2022-10-12T03:57:48;20.83;;;8.48;;
43345;SDS011;28937;51.160;4.146;2022-10-12T04:00:14;21.00;;;8.90;;
43345;SDS011;28937;51.160;4.146;2022-10-12T04:02:40;15.23;;;8.25;;
43345;SDS011;28937;51.160;4.146;2022-10-12T04:05:05;17.80;;;8.75;;
43345;SDS011;28937;51.160;4.146;2022-10-12T04:07:31;16.13;;;7.65;;
43345;SDS011;28937;51.160;4.146;2022-10-12T04:09:57;14.48;;;7.80;;
43345;SDS011;28937;51.160;4.146;2022-10-12T04:12:23;13.52;;;7.93;;
43345;SDS011;28937;51.160;4.146;2022-10-12T04:14:48;12.95;;;7.95;;
43345;SDS011;28937;51.160;4.146;2022-10-12T04:17:14;18.80;;;8.27;;
43345;SDS011;28937;51.160;4.146;2022-10-12T04:19:40;15.10;;;8.45;;
43345;SDS011;28937;51.160;4.146;2022-10-12T04:22:06;14.52;;;7.47;;
43345;SDS011;28937;51.160;4.146;2022-10-12T04:24:32;13.02;;;8.20;;
43345;SDS011;28937;51.160;4.146;2022-10-12T04:26:58;16.00;;;8.90;;
43345;SDS011;28937;51.160;4.146;2022-10-12T04:29:23;18.33;;;9.00;;
43345;SDS011;28937;51.160;4.146;2022-10-12T04:31:49;19.30;;;8.95;;
43345;SDS011;28937;51.160;4.146;2022-10-12T04:34:14;15.63;;;9.18;;
43345;SDS011;28937;51.160;4.146;2022-10-12T04:36:40;15.60;;;9.50;;
43345;SDS011;28937;51.160;4.146;2022-10-12T04:39:06;17.95;;;9.48;;
43345;SDS011;28937;51.160;4.146;2022-10-12T04:41:31;15.13;;;8.68;;
43345;SDS011;28937;51.160;4.146;2022-10-12T04:43:57;13.27;;;8.63;;
43345;SDS011;28937;51.160;4.146;2022-10-12T04:46:23;15.25;;;9.00;;
43345;SDS011;28937;51.160;4.146;2022-10-12T04:48:48;15.40;;;9.40;;
43345;SDS011;28937;51.160;4.146;2022-10-12T04:51:14;21.60;;;9.45;;
43345;SDS011;28937;51.160;4.146;2022-10-12T04:53:40;18.27;;;8.88;;
43345;SDS011;28937;51.160;4.146;2022-10-12T04:56:05;13.85;;;8.35;;
43345;SDS011;28937;51.160;4.146;2022-10-12T04:58:31;15.55;;;8.73;;
43345;SDS011;28937;51.160;4.146;2022-10-12T05:00:57;15.18;;;9.25;;
43345;SDS011;28937;51.160;4.146;2022-10-12T05:03:23;14.32;;;8.80;;
43345;SDS011;28937;51.160;4.146;2022-10-12T05:05:49;20.50;;;10.32;;
43345;SDS011;28937;51.160;4.146;2022-10-12T05:08:14;18.70;;;9.90;;
43345;SDS011;28937;51.160;4.146;2022-10-12T05:10:40;19.33;;;10.98;;
43345;SDS011;28937;51.160;4.146;2022-10-12T05:13:06;15.02;;;9.82;;
43345;SDS011;28937;51.160;4.146;2022-10-12T05:15:32;18.85;;;10.63;;
43345;SDS011;28937;51.160;4.146;2022-10-12T05:17:57;21.55;;;10.77;;
43345;SDS011;28937;51.160;4.146;2022-10-12T05:20:23;17.88;;;10.25;;
43345;SDS011;28937;51.160;4.146;2022-10-12T05:22:48;19.00;;;10.70;;
43345;SDS011;28937;51.160;4.146;2022-10-12T05:25:14;19.55;;;10.45;;
43345;SDS011;28937;51.160;4.146;2022-10-12T05:27:40;20.77;;;10.90;;
43345;SDS011;28937;51.160;4.146;2022-10-12T05:30:06;20.63;;;10.90;;
43345;SDS011;28937;51.160;4.146;2022-10-12T05:32:32;22.50;;;10.57;;
43345;SDS011;28937;51.160;4.146;2022-10-12T05:34:58;17.60;;;10.25;;
43345;SDS011;28937;51.160;4.146;2022-10-12T05:37:24;20.73;;;10.15;;
43345;SDS011;28937;51.160;4.146;2022-10-12T05:39:50;18.80;;;9.02;;
43345;SDS011;28937;51.160;4.146;2022-10-12T05:42:16;16.95;;;8.43;;
43345;SDS011;28937;51.160;4.146;2022-10-12T05:44:42;19.02;;;9.18;;
43345;SDS011;28937;51.160;4.146;2022-10-12T05:47:07;14.52;;;8.73;;
43345;SDS011;28937;51.160;4.146;2022-10-12T05:49:33;17.38;;;9.95;;
43345;SDS011;28937;51.160;4.146;2022-10-12T05:51:58;18.05;;;9.50;;
43345;SDS011;28937;51.160;4.146;2022-10-12T05:54:24;17.40;;;8.90;;
43345;SDS011;28937;51.160;4.146;2022-10-12T05:56:50;19.83;;;9.88;;
43345;SDS011;28937;51.160;4.146;2022-10-12T05:59:15;20.45;;;9.63;;
43345;SDS011;28937;51.160;4.146;2022-10-12T06:01:41;13.75;;;8.90;;
43345;SDS011;28937;51.160;4.146;2022-10-12T06:04:07;16.75;;;9.35;;
43345;SDS011;28937;51.160;4.146;2022-10-12T06:06:32;17.70;;;9.65;;
43345;SDS011;28937;51.160;4.146;2022-10-12T06:08:58;17.20;;;10.68;;
43345;SDS011;28937;51.160;4.146;2022-10-12T06:11:23;21.98;;;10.45;;
43345;SDS011;28937;51.160;4.146;2022-10-12T06:13:50;16.73;;;10.48;;
43345;SDS011;28937;51.160;4.146;2022-10-12T06:16:15;18.98;;;11.07;;
43345;SDS011;28937;51.160;4.146;2022-10-12T06:18:41;19.98;;;10.65;;
43345;SDS011;28937;51.160;4.146;2022-10-12T06:21:07;17.92;;;10.25;;
43345;SDS011;28937;51.160;4.146;2022-10-12T06:23:32;16.67;;;10.00;;
43345;SDS011;28937;51.160;4.146;2022-10-12T06:25:58;16.95;;;10.15;;
43345;SDS011;28937;51.160;4.146;2022-10-12T06:28:24;20.02;;;10.32;;
43345;SDS011;28937;51.160;4.146;2022-10-12T06:30:52;17.73;;;11.18;;
43345;SDS011;28937;51.160;4.146;2022-10-12T06:33:23;24.98;;;12.48;;
43345;SDS011;28937;51.160;4.146;2022-10-12T06:35:49;22.60;;;11.98;;
43345;SDS011;28937;51.160;4.146;2022-10-12T06:38:15;22.23;;;10.95;;
43345;SDS011;28937;51.160;4.146;2022-10-12T06:40:41;19.88;;;11.13;;
43345;SDS011;28937;51.160;4.146;2022-10-12T06:43:07;15.80;;;11.40;;
43345;SDS011;28937;51.160;4.146;2022-10-12T06:45:33;26.85;;;11.82;;
43345;SDS011;28937;51.160;4.146;2022-10-12T06:47:58;19.55;;;10.82;;
43345;SDS011;28937;51.160;4.146;2022-10-12T06:50:24;24.48;;;11.30;;
43345;SDS011;28937;51.160;4.146;2022-10-12T06:52:50;19.15;;;11.02;;
43345;SDS011;28937;51.160;4.146;2022-10-12T06:55:17;17.83;;;11.38;;
43345;SDS011;28937;51.160;4.146;2022-10-12T06:57:43;18.42;;;11.05;;
43345;SDS011;28937;51.160;4.146;2022-10-12T07:00:08;23.42;;;10.07;;
43345;SDS011;28937;51.160;4.146;2022-10-12T07:02:35;22.08;;;10.25;;
43345;SDS011;28937;51.160;4.146;2022-10-12T07:05:01;22.08;;;11.23;;
43345;SDS011;28937;51.160;4.146;2022-10-12T07:07:30;23.33;;;10.73;;
43345;SDS011;28937;51.160;4.146;2022-10-12T07:09:56;19.50;;;10.40;;
43345;SDS011;28937;51.160;4.146;2022-10-12T07:12:22;19.73;;;9.95;;
43345;SDS011;28937;51.160;4.146;2022-10-12T07:14:47;19.33;;;10.15;;
43345;SDS011;28937;51.160;4.146;2022-10-12T07:17:13;18.95;;;9.90;;
43345;SDS011;28937;51.160;4.146;2022-10-12T07:19:39;20.10;;;10.50;;
43345;SDS011;28937;51.160;4.146;2022-10-12T07:22:04;18.02;;;10.68;;
43345;SDS011;28937;51.160;4.146;2022-10-12T07:24:30;21.17;;;10.27;;
43345;SDS011;28937;51.160;4.146;2022-10-12T07:27:03;18.35;;;9.85;;
43345;SDS011;28937;51.160;4.146;2022-10-12T07:29:32;14.75;;;8.82;;
43345;SDS011;28937;51.160;4.146;2022-10-12T07:31:58;15.25;;;8.60;;
43345;SDS011;28937;51.160;4.146;2022-10-12T07:34:25;12.68;;;8.80;;
43345;SDS011;28937;51.160;4.146;2022-10-12T07:36:51;14.57;;;7.93;;
43345;SDS011;28937;51.160;4.146;2022-10-12T07:39:17;13.90;;;9.10;;
43345;SDS011;28937;51.160;4.146;2022-10-12T07:41:43;15.55;;;8.95;;
43345;SDS011;28937;51.160;4.146;2022-10-12T07:44:09;14.75;;;8.85;;
43345;SDS011;28937;51.160;4.146;2022-10-12T07:46:35;16.63;;;8.38;;
43345;SDS011;28937;51.160;4.146;2022-10-12T07:49:00;16.05;;;8.48;;
43345;SDS011;28937;51.160;4.146;2022-10-12T07:51:28;18.83;;;10.57;;
43345;SDS011;28937;51.160;4.146;2022-10-12T07:53:54;19.85;;;10.13;;
43345;SDS011;28937;51.160;4.146;2022-10-12T07:56:20;15.38;;;8.02;;
43345;SDS011;28937;51.160;4.146;2022-10-12T07:58:49;21.58;;;10.40;;
43345;SDS011;28937;51.160;4.146;2022-10-12T08:01:16;16.08;;;8.80;;
43345;SDS011;28937;51.160;4.146;2022-10-12T08:03:43;23.45;;;9.07;;
43345;SDS011;28937;51.160;4.146;2022-10-12T08:06:19;17.05;;;8.63;;
43345;SDS011;28937;51.160;4.146;2022-10-12T08:08:46;17.52;;;8.93;;
43345;SDS011;28937;51.160;4.146;2022-10-12T08:11:12;16.27;;;8.68;;
43345;SDS011;28937;51.160;4.146;2022-10-12T08:13:38;21.30;;;10.75;;
43345;SDS011;28937;51.160;4.146;2022-10-12T08:16:04;18.23;;;10.10;;
43345;SDS011;28937;51.160;4.146;2022-10-12T08:18:32;19.02;;;10.57;;
43345;SDS011;28937;51.160;4.146;2022-10-12T08:20:57;16.38;;;9.43;;
43345;SDS011;28937;51.160;4.146;2022-10-12T08:23:23;20.90;;;9.52;;
43345;SDS011;28937;51.160;4.146;2022-10-12T08:25:52;12.60;;;7.90;;
43345;SDS011;28937;51.160;4.146;2022-10-12T08:28:18;15.32;;;8.95;;
43345;SDS011;28937;51.160;4.146;2022-10-12T08:30:45;19.67;;;9.98;;
43345;SDS011;28937;51.160;4.146;2022-10-12T08:33:11;15.45;;;8.73;;
43345;SDS011;28937;51.160;4.146;2022-10-12T08:35:40;18.30;;;9.20;;
43345;SDS011;28937;51.160;4.146;2022-10-12T08:38:07;16.40;;;8.18;;
43345;SDS011;28937;51.160;4.146;2022-10-12T08:40:35;15.35;;;9.32;;
43345;SDS011;28937;51.160;4.146;2022-10-12T08:46:37;13.85;;;9.57;;
43345;SDS011;28937;51.160;4.146;2022-10-12T08:49:11;15.80;;;8.45;;
43345;SDS011;28937;51.160;4.146;2022-10-12T08:51:51;16.48;;;8.85;;
43345;SDS011;28937;51.160;4.146;2022-10-12T08:54:19;11.85;;;7.88;;
43345;SDS011;28937;51.160;4.146;2022-10-12T08:56:47;17.20;;;9.60;;
43345;SDS011;28937;51.160;4.146;2022-10-12T08:59:14;16.85;;;10.27;;
43345;SDS011;28937;51.160;4.146;2022-10-12T09:05:02;17.60;;;8.45;;
43345;SDS011;28937;51.160;4.146;2022-10-12T09:07:47;16.20;;;9.00;;
43345;SDS011;28937;51.160;4.146;2022-10-12T09:10:40;12.75;;;7.60;;
43345;SDS011;28937;51.160;4.146;2022-10-12T09:13:19;18.90;;;7.28;;
43345;SDS011;28937;51.160;4.146;2022-10-12T09:16:04;12.40;;;6.15;;
43345;SDS011;28937;51.160;4.146;2022-10-12T09:18:38;15.95;;;7.07;;
43345;SDS011;28937;51.160;4.146;2022-10-12T09:21:12;17.75;;;7.68;;
43345;SDS011;28937;51.160;4.146;2022-10-12T09:23:42;11.02;;;6.97;;
43345;SDS011;28937;51.160;4.146;2022-10-12T09:26:16;10.00;;;6.28;;
43345;SDS011;28937;51.160;4.146;2022-10-12T09:28:53;10.65;;;6.60;;
43345;SDS011;28937;51.160;4.146;2022-10-12T09:34:02;16.02;;;8.10;;
43345;SDS011;28937;51.160;4.146;2022-10-12T09:36:31;12.18;;;6.75;;
43345;SDS011;28937;51.160;4.146;2022-10-12T09:39:01;13.43;;;6.10;;
43345;SDS011;28937;51.160;4.146;2022-10-12T09:41:32;12.98;;;7.50;;
43345;SDS011;28937;51.160;4.146;2022-10-12T09:44:00;15.52;;;8.18;;
43345;SDS011;28937;51.160;4.146;2022-10-12T09:46:32;12.70;;;6.40;;
43345;SDS011;28937;51.160;4.146;2022-10-12T09:49:04;12.20;;;7.03;;
43345;SDS011;28937;51.160;4.146;2022-10-12T09:51:30;12.80;;;6.20;;
43345;SDS011;28937;51.160;4.146;2022-10-12T09:53:56;10.32;;;7.03;;
43345;SDS011;28937;51.160;4.146;2022-10-12T09:56:37;13.85;;;7.68;;
43345;SDS011;28937;51.160;4.146;2022-10-12T09:59:16;15.88;;;8.02;;
43345;SDS011;28937;51.160;4.146;2022-10-12T10:02:35;14.50;;;8.05;;
43345;SDS011;28937;51.160;4.146;2022-10-12T10:04:46;13.85;;;6.07;;
43345;SDS011;28937;51.160;4.146;2022-10-12T10:07:20;11.60;;;6.68;;
43345;SDS011;28937;51.160;4.146;2022-10-12T10:09:46;13.85;;;7.15;;
43345;SDS011;28937;51.160;4.146;2022-10-12T10:12:23;17.38;;;9.20;;
43345;SDS011;28937;51.160;4.146;2022-10-12T10:14:51;16.23;;;6.95;;
43345;SDS011;28937;51.160;4.146;2022-10-12T10:17:27;12.70;;;5.85;;
43345;SDS011;28937;51.160;4.146;2022-10-12T10:19:55;11.70;;;6.40;;
43345;SDS011;28937;51.160;4.146;2022-10-12T10:22:23;12.88;;;6.65;;
43345;SDS011;28937;51.160;4.146;2022-10-12T10:24:53;16.02;;;8.15;;
43345;SDS011;28937;51.160;4.146;2022-10-12T10:27:32;16.85;;;7.75;;
43345;SDS011;28937;51.160;4.146;2022-10-12T10:30:09;15.35;;;7.97;;
43345;SDS011;28937;51.160;4.146;2022-10-12T10:32:39;11.50;;;5.85;;
43345;SDS011;28937;51.160;4.146;2022-10-12T10:35:05;13.73;;;6.75;;
43345;SDS011;28937;51.160;4.146;2022-10-12T10:40:19;14.15;;;7.43;;
43345;SDS011;28937;51.160;4.146;2022-10-12T10:42:52;22.77;;;8.45;;
43345;SDS011;28937;51.160;4.146;2022-10-12T10:45:24;16.42;;;8.65;;
43345;SDS011;28937;51.160;4.146;2022-10-12T10:48:07;20.02;;;10.35;;
43345;SDS011;28937;51.160;4.146;2022-10-12T10:50:41;14.98;;;8.63;;
43345;SDS011;28937;51.160;4.146;2022-10-12T11:03:53;13.27;;;7.75;;
43345;SDS011;28937;51.160;4.146;2022-10-12T11:06:38;16.50;;;7.80;;
43345;SDS011;28937;51.160;4.146;2022-10-12T11:09:26;14.40;;;7.85;;
43345;SDS011;28937;51.160;4.146;2022-10-12T11:12:13;14.52;;;7.55;;
43345;SDS011;28937;51.160;4.146;2022-10-12T11:14:50;13.05;;;7.65;;
43345;SDS011;28937;51.160;4.146;2022-10-12T11:17:22;13.50;;;6.75;;
43345;SDS011;28937;51.160;4.146;2022-10-12T11:19:55;13.07;;;6.72;;
43345;SDS011;28937;51.160;4.146;2022-10-12T11:22:33;15.15;;;6.75;;
43345;SDS011;28937;51.160;4.146;2022-10-12T11:25:13;12.55;;;6.13;;
43345;SDS011;28937;51.160;4.146;2022-10-12T11:27:50;10.55;;;6.30;;
43345;SDS011;28937;51.160;4.146;2022-10-12T11:30:19;10.40;;;6.00;;
43345;SDS011;28937;51.160;4.146;2022-10-12T11:33:08;13.25;;;6.80;;
43345;SDS011;28937;51.160;4.146;2022-10-12T11:35:50;14.85;;;6.32;;
43345;SDS011;28937;51.160;4.146;2022-10-12T11:38:52;10.70;;;4.85;;
43345;SDS011;28937;51.160;4.146;2022-10-12T11:43:47;13.65;;;5.20;;
43345;SDS011;28937;51.160;4.146;2022-10-12T11:46:20;12.60;;;5.43;;
43345;SDS011;28937;51.160;4.146;2022-10-12T11:48:58;14.13;;;5.13;;
43345;SDS011;28937;51.160;4.146;2022-10-12T11:51:30;14.95;;;5.30;;
43345;SDS011;28937;51.160;4.146;2022-10-12T11:54:00;11.38;;;5.15;;
43345;SDS011;28937;51.160;4.146;2022-10-12T11:58:57;11.20;;;4.35;;
43345;SDS011;28937;51.160;4.146;2022-10-12T12:04:48;9.02;;;4.68;;
43345;SDS011;28937;51.160;4.146;2022-10-12T12:15:36;13.40;;;4.15;;
43345;SDS011;28937;51.160;4.146;2022-10-12T12:18:03;8.00;;;4.00;;
43345;SDS011;28937;51.160;4.146;2022-10-12T12:28:35;7.20;;;3.60;;
43345;SDS011;28937;51.160;4.146;2022-10-12T12:31:07;10.95;;;3.58;;
43345;SDS011;28937;51.160;4.146;2022-10-12T12:34:12;14.80;;;4.38;;
43345;SDS011;28937;51.160;4.146;2022-10-12T12:36:40;12.07;;;3.65;;
43345;SDS011;28937;51.160;4.146;2022-10-12T12:41:58;8.02;;;3.45;;
43345;SDS011;28937;51.160;4.146;2022-10-12T12:44:42;12.55;;;4.25;;
43345;SDS011;28937;51.160;4.146;2022-10-12T12:49:53;10.88;;;3.53;;
43345;SDS011;28937;51.160;4.146;2022-10-12T12:52:39;11.38;;;3.95;;
43345;SDS011;28937;51.160;4.146;2022-10-12T13:00:22;14.02;;;3.90;;
43345;SDS011;28937;51.160;4.146;2022-10-12T13:11:01;9.40;;;3.17;;
43345;SDS011;28937;51.160;4.146;2022-10-12T13:14:06;11.20;;;3.90;;
43345;SDS011;28937;51.160;4.146;2022-10-12T13:19:33;9.00;;;3.17;;
43345;SDS011;28937;51.160;4.146;2022-10-12T13:22:04;8.73;;;3.10;;
43345;SDS011;28937;51.160;4.146;2022-10-12T13:29:58;12.77;;;4.15;;
43345;SDS011;28937;51.160;4.146;2022-10-12T13:38:00;10.25;;;3.10;;
43345;SDS011;28937;51.160;4.146;2022-10-12T13:42:56;10.50;;;3.42;;
43345;SDS011;28937;51.160;4.146;2022-10-12T13:45:44;11.35;;;3.83;;
43345;SDS011;28937;51.160;4.146;2022-10-12T13:48:15;8.32;;;2.95;;
43345;SDS011;28937;51.160;4.146;2022-10-12T13:50:59;9.45;;;2.95;;
43345;SDS011;28937;51.160;4.146;2022-10-12T13:53:37;9.48;;;3.30;;
43345;SDS011;28937;51.160;4.146;2022-10-12T13:56:16;9.45;;;4.05;;
43345;SDS011;28937;51.160;4.146;2022-10-12T13:58:43;8.20;;;2.72;;
43345;SDS011;28937;51.160;4.146;2022-10-12T14:01:09;7.57;;;2.92;;
43345;SDS011;28937;51.160;4.146;2022-10-12T14:03:40;11.32;;;3.50;;
43345;SDS011;28937;51.160;4.146;2022-10-12T14:09:07;10.63;;;3.58;;
43345;SDS011;28937;51.160;4.146;2022-10-12T14:11:34;8.73;;;2.95;;
43345;SDS011;28937;51.160;4.146;2022-10-12T14:14:01;7.80;;;2.90;;
43345;SDS011;28937;51.160;4.146;2022-10-12T14:16:27;13.32;;;3.17;;
43345;SDS011;28937;51.160;4.146;2022-10-12T14:18:53;14.35;;;3.58;;
43345;SDS011;28937;51.160;4.146;2022-10-12T14:23:56;20.23;;;3.05;;
43345;SDS011;28937;51.160;4.146;2022-10-12T14:26:32;7.60;;;2.28;;
43345;SDS011;28937;51.160;4.146;2022-10-12T14:31:54;8.85;;;2.33;;
43345;SDS011;28937;51.160;4.146;2022-10-12T14:37:17;8.57;;;2.55;;
43345;SDS011;28937;51.160;4.146;2022-10-12T14:39:46;9.57;;;2.55;;
43345;SDS011;28937;51.160;4.146;2022-10-12T14:44:45;5.65;;;2.53;;
43345;SDS011;28937;51.160;4.146;2022-10-12T14:47:19;5.55;;;1.98;;
43345;SDS011;28937;51.160;4.146;2022-10-12T14:49:50;11.55;;;2.65;;
43345;SDS011;28937;51.160;4.146;2022-10-12T14:52:19;5.85;;;1.85;;
43345;SDS011;28937;51.160;4.146;2022-10-12T14:54:56;8.13;;;2.80;;
43345;SDS011;28937;51.160;4.146;2022-10-12T14:57:23;7.57;;;2.35;;
43345;SDS011;28937;51.160;4.146;2022-10-12T14:59:50;5.85;;;2.45;;
43345;SDS011;28937;51.160;4.146;2022-10-12T15:04:43;10.93;;;2.30;;
43345;SDS011;28937;51.160;4.146;2022-10-12T15:07:19;4.93;;;2.05;;
43345;SDS011;28937;51.160;4.146;2022-10-12T15:09:51;6.10;;;2.25;;
43345;SDS011;28937;51.160;4.146;2022-10-12T15:12:18;18.15;;;3.03;;
43345;SDS011;28937;51.160;4.146;2022-10-12T15:14:45;8.45;;;2.65;;
43345;SDS011;28937;51.160;4.146;2022-10-12T15:17:11;6.57;;;2.25;;
43345;SDS011;28937;51.160;4.146;2022-10-12T15:19:39;8.65;;;2.92;;
43345;SDS011;28937;51.160;4.146;2022-10-12T15:22:06;6.88;;;2.30;;
43345;SDS011;28937;51.160;4.146;2022-10-12T15:24:34;6.75;;;2.28;;
43345;SDS011;28937;51.160;4.146;2022-10-12T15:27:00;6.90;;;2.53;;
43345;SDS011;28937;51.160;4.146;2022-10-12T15:29:26;7.30;;;2.60;;
43345;SDS011;28937;51.160;4.146;2022-10-12T15:31:51;10.23;;;2.78;;
43345;SDS011;28937;51.160;4.146;2022-10-12T15:34:17;9.05;;;3.13;;
43345;SDS011;28937;51.160;4.146;2022-10-12T15:36:43;7.25;;;2.88;;
43345;SDS011;28937;51.160;4.146;2022-10-12T15:39:08;9.02;;;2.78;;
43345;SDS011;28937;51.160;4.146;2022-10-12T15:41:34;9.15;;;2.88;;
43345;SDS011;28937;51.160;4.146;2022-10-12T15:43:59;9.85;;;3.10;;
43345;SDS011;28937;51.160;4.146;2022-10-12T15:46:25;7.85;;;3.25;;
43345;SDS011;28937;51.160;4.146;2022-10-12T15:48:52;7.07;;;2.92;;
43345;SDS011;28937;51.160;4.146;2022-10-12T15:51:21;5.32;;;2.60;;
43345;SDS011;28937;51.160;4.146;2022-10-12T15:53:48;8.95;;;2.63;;
43345;SDS011;28937;51.160;4.146;2022-10-12T15:56:15;10.07;;;2.97;;
43345;SDS011;28937;51.160;4.146;2022-10-12T15:58:42;6.93;;;2.05;;
43345;SDS011;28937;51.160;4.146;2022-10-12T16:01:15;10.32;;;3.55;;
43345;SDS011;28937;51.160;4.146;2022-10-12T16:03:42;13.45;;;4.63;;
43345;SDS011;28937;51.160;4.146;2022-10-12T16:06:08;7.68;;;3.78;;
43345;SDS011;28937;51.160;4.146;2022-10-12T16:08:34;9.25;;;3.50;;
43345;SDS011;28937;51.160;4.146;2022-10-12T16:11:04;8.15;;;3.28;;
43345;SDS011;28937;51.160;4.146;2022-10-12T16:13:30;10.93;;;3.90;;
43345;SDS011;28937;51.160;4.146;2022-10-12T16:15:56;9.20;;;3.60;;
43345;SDS011;28937;51.160;4.146;2022-10-12T16:18:22;14.00;;;4.45;;
43345;SDS011;28937;51.160;4.146;2022-10-12T16:20:48;8.93;;;3.85;;
43345;SDS011;28937;51.160;4.146;2022-10-12T16:23:15;11.82;;;4.25;;
43345;SDS011;28937;51.160;4.146;2022-10-12T16:25:43;8.07;;;3.85;;
43345;SDS011;28937;51.160;4.146;2022-10-12T16:28:09;10.48;;;3.72;;
43345;SDS011;28937;51.160;4.146;2022-10-12T16:30:35;8.50;;;3.80;;
43345;SDS011;28937;51.160;4.146;2022-10-12T16:33:01;7.85;;;3.10;;
43345;SDS011;28937;51.160;4.146;2022-10-12T16:35:26;7.00;;;3.33;;
43345;SDS011;28937;51.160;4.146;2022-10-12T16:37:52;11.18;;;3.30;;
43345;SDS011;28937;51.160;4.146;2022-10-12T16:40:18;7.93;;;3.95;;
43345;SDS011;28937;51.160;4.146;2022-10-12T16:42:43;7.25;;;2.85;;
43345;SDS011;28937;51.160;4.146;2022-10-12T16:45:09;10.32;;;3.60;;
43345;SDS011;28937;51.160;4.146;2022-10-12T16:47:38;10.73;;;3.53;;
43345;SDS011;28937;51.160;4.146;2022-10-12T16:50:04;8.77;;;3.35;;
43345;SDS011;28937;51.160;4.146;2022-10-12T16:52:30;8.95;;;3.30;;